Terminal Aerodrome Forecast
Issued by NWS

Home | Current Version | Previous Version | Text Only | Print | Product List | Glossary On
Versions: 1 2 3 4 5 6 7 8 9 10 11 12 13 14
000
FTUS41 KPHI 041729
TAFMIV
TAF
KMIV 041729Z 0418/0518 26011G20KT P6SM BKN050
     FM042000 27011G21KT P6SM VCTS BKN040CB
     FM050000 24003KT P6SM SCT060
     FM050600 28002KT 3SM BR SCT015
     FM051400 31011G19KT P6SM FEW060=

USA.gov is the U.S. government's official web portal to all federal, state and local government web resources and services.